sensor_id;sensor_type;location;lat;lon;timestamp;temperature;humidity
70107;DHT22;57473;37.508;15.080;2022-07-23T00:02:00;27.20;39.40
70107;DHT22;57473;37.508;15.080;2022-07-23T00:04:28;27.20;39.30
70107;DHT22;57473;37.508;15.080;2022-07-23T00:06:55;27.20;39.50
70107;DHT22;57473;37.508;15.080;2022-07-23T00:09:22;27.20;39.50
70107;DHT22;57473;37.508;15.080;2022-07-23T00:11:49;27.20;39.50
70107;DHT22;57473;37.508;15.080;2022-07-23T00:14:19;27.20;39.90
70107;DHT22;57473;37.508;15.080;2022-07-23T00:16:46;27.20;40.00
70107;DHT22;57473;37.508;15.080;2022-07-23T00:19:14;27.20;40.40
70107;DHT22;57473;37.508;15.080;2022-07-23T00:21:41;27.10;40.50
70107;DHT22;57473;37.508;15.080;2022-07-23T00:24:08;27.10;40.80
70107;DHT22;57473;37.508;15.080;2022-07-23T00:26:35;27.10;41.00
70107;DHT22;57473;37.508;15.080;2022-07-23T00:29:02;27.00;41.50
70107;DHT22;57473;37.508;15.080;2022-07-23T00:31:30;27.00;42.60
70107;DHT22;57473;37.508;15.080;2022-07-23T00:33:58;26.90;43.40
70107;DHT22;57473;37.508;15.080;2022-07-23T00:36:28;26.90;43.40
70107;DHT22;57473;37.508;15.080;2022-07-23T00:38:55;26.80;43.70
70107;DHT22;57473;37.508;15.080;2022-07-23T00:41:23;26.70;43.90
70107;DHT22;57473;37.508;15.080;2022-07-23T00:43:51;26.70;43.20
70107;DHT22;57473;37.508;15.080;2022-07-23T00:46:22;26.70;43.10
70107;DHT22;57473;37.508;15.080;2022-07-23T00:48:50;26.70;43.40
70107;DHT22;57473;37.508;15.080;2022-07-23T00:51:18;26.60;43.20
70107;DHT22;57473;37.508;15.080;2022-07-23T00:53:45;26.60;44.10
70107;DHT22;57473;37.508;15.080;2022-07-23T00:56:13;26.60;44.20
70107;DHT22;57473;37.508;15.080;2022-07-23T00:58:42;26.50;43.50
70107;DHT22;57473;37.508;15.080;2022-07-23T01:01:11;26.50;43.20
70107;DHT22;57473;37.508;15.080;2022-07-23T01:03:39;26.60;43.50
70107;DHT22;57473;37.508;15.080;2022-07-23T01:06:06;26.60;43.80
70107;DHT22;57473;37.508;15.080;2022-07-23T01:08:34;26.50;43.60
70107;DHT22;57473;37.508;15.080;2022-07-23T01:11:01;26.50;43.20
70107;DHT22;57473;37.508;15.080;2022-07-23T01:13:28;26.50;43.10
70107;DHT22;57473;37.508;15.080;2022-07-23T01:15:56;26.50;42.80
70107;DHT22;57473;37.508;15.080;2022-07-23T01:18:23;26.60;42.70
70107;DHT22;57473;37.508;15.080;2022-07-23T01:20:50;26.60;43.20
70107;DHT22;57473;37.508;15.080;2022-07-23T01:23:21;26.50;43.50
70107;DHT22;57473;37.508;15.080;2022-07-23T01:25:54;26.50;43.20
70107;DHT22;57473;37.508;15.080;2022-07-23T01:28:26;26.50;43.00
70107;DHT22;57473;37.508;15.080;2022-07-23T01:30:55;26.50;43.40
70107;DHT22;57473;37.508;15.080;2022-07-23T01:33:23;26.50;43.50
70107;DHT22;57473;37.508;15.080;2022-07-23T01:35:50;26.50;43.30
70107;DHT22;57473;37.508;15.080;2022-07-23T01:38:22;26.50;43.70
70107;DHT22;57473;37.508;15.080;2022-07-23T01:40:49;26.50;43.70
70107;DHT22;57473;37.508;15.080;2022-07-23T01:43:26;26.40;43.70
70107;DHT22;57473;37.508;15.080;2022-07-23T01:45:54;26.40;43.70
70107;DHT22;57473;37.508;15.080;2022-07-23T01:48:22;26.30;43.90
70107;DHT22;57473;37.508;15.080;2022-07-23T01:51:08;26.30;44.10
70107;DHT22;57473;37.508;15.080;2022-07-23T01:53:43;26.30;44.30
70107;DHT22;57473;37.508;15.080;2022-07-23T01:56:10;26.30;44.50
70107;DHT22;57473;37.508;15.080;2022-07-23T01:58:41;26.30;44.60
70107;DHT22;57473;37.508;15.080;2022-07-23T02:01:08;26.30;44.70
70107;DHT22;57473;37.508;15.080;2022-07-23T02:03:37;26.30;44.70
70107;DHT22;57473;37.508;15.080;2022-07-23T02:06:04;26.20;45.00
70107;DHT22;57473;37.508;15.080;2022-07-23T02:08:32;26.20;45.30
70107;DHT22;57473;37.508;15.080;2022-07-23T02:11:01;26.10;45.00
70107;DHT22;57473;37.508;15.080;2022-07-23T02:13:28;26.10;45.00
70107;DHT22;57473;37.508;15.080;2022-07-23T02:16:00;26.10;45.30
70107;DHT22;57473;37.508;15.080;2022-07-23T02:18:28;26.10;45.40
70107;DHT22;57473;37.508;15.080;2022-07-23T02:20:55;26.10;45.30
70107;DHT22;57473;37.508;15.080;2022-07-23T02:23:23;26.10;43.90
70107;DHT22;57473;37.508;15.080;2022-07-23T02:25:52;26.10;43.50
70107;DHT22;57473;37.508;15.080;2022-07-23T02:28:20;26.10;44.10
70107;DHT22;57473;37.508;15.080;2022-07-23T02:30:47;26.10;44.00
70107;DHT22;57473;37.508;15.080;2022-07-23T02:33:15;26.10;44.00
70107;DHT22;57473;37.508;15.080;2022-07-23T02:35:42;26.10;43.80
70107;DHT22;57473;37.508;15.080;2022-07-23T02:38:10;26.10;43.60
70107;DHT22;57473;37.508;15.080;2022-07-23T02:40:37;26.10;43.60
70107;DHT22;57473;37.508;15.080;2022-07-23T02:43:06;26.10;43.50
70107;DHT22;57473;37.508;15.080;2022-07-23T02:45:34;26.10;44.00
70107;DHT22;57473;37.508;15.080;2022-07-23T02:48:01;26.00;44.00
70107;DHT22;57473;37.508;15.080;2022-07-23T02:50:30;26.00;43.80
70107;DHT22;57473;37.508;15.080;2022-07-23T02:52:59;26.00;44.00
70107;DHT22;57473;37.508;15.080;2022-07-23T02:55:29;25.90;44.40
70107;DHT22;57473;37.508;15.080;2022-07-23T02:57:59;25.90;44.70
70107;DHT22;57473;37.508;15.080;2022-07-23T03:00:27;25.90;44.80
70107;DHT22;57473;37.508;15.080;2022-07-23T03:02:55;25.90;44.90
70107;DHT22;57473;37.508;15.080;2022-07-23T03:05:22;25.80;45.40
70107;DHT22;57473;37.508;15.080;2022-07-23T03:07:49;25.80;45.50
70107;DHT22;57473;37.508;15.080;2022-07-23T03:10:17;25.80;45.70
70107;DHT22;57473;37.508;15.080;2022-07-23T03:12:44;25.70;45.70
70107;DHT22;57473;37.508;15.080;2022-07-23T03:15:11;25.70;46.00
70107;DHT22;57473;37.508;15.080;2022-07-23T03:17:40;25.70;46.30
70107;DHT22;57473;37.508;15.080;2022-07-23T03:20:08;25.70;46.40
70107;DHT22;57473;37.508;15.080;2022-07-23T03:22:38;25.60;46.70
70107;DHT22;57473;37.508;15.080;2022-07-23T03:25:05;25.60;46.80
70107;DHT22;57473;37.508;15.080;2022-07-23T03:27:34;25.60;47.20
70107;DHT22;57473;37.508;15.080;2022-07-23T03:30:02;25.60;47.40
70107;DHT22;57473;37.508;15.080;2022-07-23T03:32:29;25.50;47.70
70107;DHT22;57473;37.508;15.080;2022-07-23T03:34:58;25.50;47.80
70107;DHT22;57473;37.508;15.080;2022-07-23T03:37:26;25.60;47.90
70107;DHT22;57473;37.508;15.080;2022-07-23T03:39:56;25.60;48.20
70107;DHT22;57473;37.508;15.080;2022-07-23T03:42:24;25.60;48.40
70107;DHT22;57473;37.508;15.080;2022-07-23T03:44:51;25.60;48.60
70107;DHT22;57473;37.508;15.080;2022-07-23T03:47:18;25.60;48.60
70107;DHT22;57473;37.508;15.080;2022-07-23T03:49:49;25.60;48.70
70107;DHT22;57473;37.508;15.080;2022-07-23T03:52:16;25.60;48.70
70107;DHT22;57473;37.508;15.080;2022-07-23T03:54:44;25.60;48.70
70107;DHT22;57473;37.508;15.080;2022-07-23T03:57:11;25.60;48.60
70107;DHT22;57473;37.508;15.080;2022-07-23T03:59:38;25.60;48.40
70107;DHT22;57473;37.508;15.080;2022-07-23T04:02:05;25.60;48.50
70107;DHT22;57473;37.508;15.080;2022-07-23T04:04:33;25.60;48.70
70107;DHT22;57473;37.508;15.080;2022-07-23T04:07:01;25.60;49.00
70107;DHT22;57473;37.508;15.080;2022-07-23T04:09:29;25.50;49.00
70107;DHT22;57473;37.508;15.080;2022-07-23T04:11:57;25.50;49.10
70107;DHT22;57473;37.508;15.080;2022-07-23T04:14:24;25.50;49.30
70107;DHT22;57473;37.508;15.080;2022-07-23T04:16:51;25.50;49.20
70107;DHT22;57473;37.508;15.080;2022-07-23T04:19:20;25.50;49.10
70107;DHT22;57473;37.508;15.080;2022-07-23T04:21:56;25.60;48.70
70107;DHT22;57473;37.508;15.080;2022-07-23T04:24:24;25.60;48.50
70107;DHT22;57473;37.508;15.080;2022-07-23T04:26:51;25.70;48.60
70107;DHT22;57473;37.508;15.080;2022-07-23T04:29:20;25.70;48.50
70107;DHT22;57473;37.508;15.080;2022-07-23T04:31:48;25.70;48.80
70107;DHT22;57473;37.508;15.080;2022-07-23T04:34:16;25.70;48.90
70107;DHT22;57473;37.508;15.080;2022-07-23T04:36:44;25.70;49.10
70107;DHT22;57473;37.508;15.080;2022-07-23T04:39:14;25.70;49.20
70107;DHT22;57473;37.508;15.080;2022-07-23T04:41:41;25.70;49.20
70107;DHT22;57473;37.508;15.080;2022-07-23T04:44:09;25.70;49.30
70107;DHT22;57473;37.508;15.080;2022-07-23T04:46:39;25.80;49.50
70107;DHT22;57473;37.508;15.080;2022-07-23T04:49:07;25.80;49.60
70107;DHT22;57473;37.508;15.080;2022-07-23T04:51:34;25.90;49.80
70107;DHT22;57473;37.508;15.080;2022-07-23T04:54:02;25.90;49.80
70107;DHT22;57473;37.508;15.080;2022-07-23T04:56:29;26.00;49.90
70107;DHT22;57473;37.508;15.080;2022-07-23T04:58:57;26.00;50.00
70107;DHT22;57473;37.508;15.080;2022-07-23T05:01:25;26.10;50.30
70107;DHT22;57473;37.508;15.080;2022-07-23T05:03:52;26.10;50.50
70107;DHT22;57473;37.508;15.080;2022-07-23T05:06:19;26.20;50.90
70107;DHT22;57473;37.508;15.080;2022-07-23T05:08:47;26.30;50.80
70107;DHT22;57473;37.508;15.080;2022-07-23T05:11:14;26.40;51.00
70107;DHT22;57473;37.508;15.080;2022-07-23T05:13:42;26.50;51.00
70107;DHT22;57473;37.508;15.080;2022-07-23T05:16:09;26.50;50.70
70107;DHT22;57473;37.508;15.080;2022-07-23T05:18:37;26.60;50.70
70107;DHT22;57473;37.508;15.080;2022-07-23T05:21:05;26.60;51.00
70107;DHT22;57473;37.508;15.080;2022-07-23T05:23:32;26.70;51.50
70107;DHT22;57473;37.508;15.080;2022-07-23T05:26:00;26.80;52.00
70107;DHT22;57473;37.508;15.080;2022-07-23T05:28:28;26.90;52.70
70107;DHT22;57473;37.508;15.080;2022-07-23T05:30:57;27.00;53.10
70107;DHT22;57473;37.508;15.080;2022-07-23T05:33:24;27.10;53.30
70107;DHT22;57473;37.508;15.080;2022-07-23T05:35:52;27.20;54.70
70107;DHT22;57473;37.508;15.080;2022-07-23T05:38:28;27.30;55.90
70107;DHT22;57473;37.508;15.080;2022-07-23T05:40:58;27.40;58.50
70107;DHT22;57473;37.508;15.080;2022-07-23T05:43:27;27.40;61.50
70107;DHT22;57473;37.508;15.080;2022-07-23T05:45:56;27.50;62.30
70107;DHT22;57473;37.508;15.080;2022-07-23T05:48:24;27.50;62.20
70107;DHT22;57473;37.508;15.080;2022-07-23T05:51:00;27.60;62.10
70107;DHT22;57473;37.508;15.080;2022-07-23T05:53:30;27.70;62.10
70107;DHT22;57473;37.508;15.080;2022-07-23T05:56:01;27.70;62.00
70107;DHT22;57473;37.508;15.080;2022-07-23T05:58:30;27.90;61.50
70107;DHT22;57473;37.508;15.080;2022-07-23T06:00:57;28.00;60.50
70107;DHT22;57473;37.508;15.080;2022-07-23T06:03:27;28.20;59.50
70107;DHT22;57473;37.508;15.080;2022-07-23T06:05:55;28.30;59.00
70107;DHT22;57473;37.508;15.080;2022-07-23T06:08:23;28.40;58.30
70107;DHT22;57473;37.508;15.080;2022-07-23T06:10:55;28.50;58.60
70107;DHT22;57473;37.508;15.080;2022-07-23T06:13:22;28.60;58.20
70107;DHT22;57473;37.508;15.080;2022-07-23T06:15:50;28.60;58.20
70107;DHT22;57473;37.508;15.080;2022-07-23T06:18:18;28.60;58.20
70107;DHT22;57473;37.508;15.080;2022-07-23T06:20:46;28.80;58.10
70107;DHT22;57473;37.508;15.080;2022-07-23T06:23:17;28.80;57.60
70107;DHT22;57473;37.508;15.080;2022-07-23T06:25:44;28.90;57.70
70107;DHT22;57473;37.508;15.080;2022-07-23T06:28:12;29.00;57.90
70107;DHT22;57473;37.508;15.080;2022-07-23T06:30:41;29.20;58.00
70107;DHT22;57473;37.508;15.080;2022-07-23T06:33:09;29.30;58.10
70107;DHT22;57473;37.508;15.080;2022-07-23T06:35:38;29.30;58.00
70107;DHT22;57473;37.508;15.080;2022-07-23T06:38:07;29.50;57.80
70107;DHT22;57473;37.508;15.080;2022-07-23T06:40:34;29.60;58.50
70107;DHT22;57473;37.508;15.080;2022-07-23T06:43:02;29.70;58.90
70107;DHT22;57473;37.508;15.080;2022-07-23T06:45:33;29.80;57.60
70107;DHT22;57473;37.508;15.080;2022-07-23T06:48:01;29.90;56.90
70107;DHT22;57473;37.508;15.080;2022-07-23T06:50:32;30.10;57.20
70107;DHT22;57473;37.508;15.080;2022-07-23T06:53:00;30.30;57.20
70107;DHT22;57473;37.508;15.080;2022-07-23T06:55:28;30.40;57.60
70107;DHT22;57473;37.508;15.080;2022-07-23T06:57:55;30.50;57.30
70107;DHT22;57473;37.508;15.080;2022-07-23T07:00:29;30.70;55.50
70107;DHT22;57473;37.508;15.080;2022-07-23T07:03:00;31.00;54.70
70107;DHT22;57473;37.508;15.080;2022-07-23T07:05:28;31.10;52.70
70107;DHT22;57473;37.508;15.080;2022-07-23T07:07:55;31.10;52.50
70107;DHT22;57473;37.508;15.080;2022-07-23T07:10:22;31.30;52.20
70107;DHT22;57473;37.508;15.080;2022-07-23T07:12:50;31.50;51.90
70107;DHT22;57473;37.508;15.080;2022-07-23T07:15:17;31.40;51.30
70107;DHT22;57473;37.508;15.080;2022-07-23T07:17:47;31.50;51.20
70107;DHT22;57473;37.508;15.080;2022-07-23T07:20:18;31.60;51.30
70107;DHT22;57473;37.508;15.080;2022-07-23T07:22:46;31.80;51.80
70107;DHT22;57473;37.508;15.080;2022-07-23T07:25:13;31.90;52.20
70107;DHT22;57473;37.508;15.080;2022-07-23T07:27:40;32.00;51.30
70107;DHT22;57473;37.508;15.080;2022-07-23T07:30:08;32.10;50.90
70107;DHT22;57473;37.508;15.080;2022-07-23T07:32:36;32.10;49.70
70107;DHT22;57473;37.508;15.080;2022-07-23T07:35:24;32.10;51.50
70107;DHT22;57473;37.508;15.080;2022-07-23T07:37:52;32.20;51.00
70107;DHT22;57473;37.508;15.080;2022-07-23T07:40:19;32.20;50.80
70107;DHT22;57473;37.508;15.080;2022-07-23T07:42:49;32.20;51.90
70107;DHT22;57473;37.508;15.080;2022-07-23T07:45:16;32.30;52.20
70107;DHT22;57473;37.508;15.080;2022-07-23T07:47:44;32.30;52.60
70107;DHT22;57473;37.508;15.080;2022-07-23T07:50:11;32.40;52.80
70107;DHT22;57473;37.508;15.080;2022-07-23T07:52:39;32.40;52.50
70107;DHT22;57473;37.508;15.080;2022-07-23T07:55:08;32.30;52.90
70107;DHT22;57473;37.508;15.080;2022-07-23T07:57:37;32.20;53.20
70107;DHT22;57473;37.508;15.080;2022-07-23T08:00:06;32.30;52.70
70107;DHT22;57473;37.508;15.080;2022-07-23T08:02:47;32.20;53.10
70107;DHT22;57473;37.508;15.080;2022-07-23T08:05:22;32.30;53.30
70107;DHT22;57473;37.508;15.080;2022-07-23T08:07:55;32.30;53.30
70107;DHT22;57473;37.508;15.080;2022-07-23T08:10:23;32.20;54.30
70107;DHT22;57473;37.508;15.080;2022-07-23T08:12:53;32.10;54.80
70107;DHT22;57473;37.508;15.080;2022-07-23T08:15:21;32.10;54.80
70107;DHT22;57473;37.508;15.080;2022-07-23T08:17:49;32.20;54.70
70107;DHT22;57473;37.508;15.080;2022-07-23T08:20:20;32.20;54.60
70107;DHT22;57473;37.508;15.080;2022-07-23T08:22:51;32.30;54.50
70107;DHT22;57473;37.508;15.080;2022-07-23T08:25:26;32.40;54.90
70107;DHT22;57473;37.508;15.080;2022-07-23T08:27:54;32.40;53.90
70107;DHT22;57473;37.508;15.080;2022-07-23T08:30:22;32.50;53.50
70107;DHT22;57473;37.508;15.080;2022-07-23T08:35:17;32.80;52.40
70107;DHT22;57473;37.508;15.080;2022-07-23T08:37:45;32.80;53.40
70107;DHT22;57473;37.508;15.080;2022-07-23T08:40:12;32.80;52.90
70107;DHT22;57473;37.508;15.080;2022-07-23T08:42:39;33.00;52.30
70107;DHT22;57473;37.508;15.080;2022-07-23T08:45:08;32.90;52.00
70107;DHT22;57473;37.508;15.080;2022-07-23T08:47:37;33.00;51.90
70107;DHT22;57473;37.508;15.080;2022-07-23T08:50:07;33.10;51.10
70107;DHT22;57473;37.508;15.080;2022-07-23T08:52:36;33.00;51.00
70107;DHT22;57473;37.508;15.080;2022-07-23T08:55:04;33.00;51.20
70107;DHT22;57473;37.508;15.080;2022-07-23T08:57:35;33.10;50.90
70107;DHT22;57473;37.508;15.080;2022-07-23T09:00:04;33.30;50.50
70107;DHT22;57473;37.508;15.080;2022-07-23T09:02:37;33.20;50.40
70107;DHT22;57473;37.508;15.080;2022-07-23T09:05:05;33.10;51.10
70107;DHT22;57473;37.508;15.080;2022-07-23T09:07:33;33.20;51.00
70107;DHT22;57473;37.508;15.080;2022-07-23T09:10:11;33.30;50.80
70107;DHT22;57473;37.508;15.080;2022-07-23T09:12:41;33.40;50.40
70107;DHT22;57473;37.508;15.080;2022-07-23T09:15:09;33.50;50.20
70107;DHT22;57473;37.508;15.080;2022-07-23T09:17:41;33.50;50.10
70107;DHT22;57473;37.508;15.080;2022-07-23T09:20:13;33.60;49.90
70107;DHT22;57473;37.508;15.080;2022-07-23T09:22:46;33.50;49.50
70107;DHT22;57473;37.508;15.080;2022-07-23T09:25:16;33.40;50.20
70107;DHT22;57473;37.508;15.080;2022-07-23T09:30:23;33.20;50.30
70107;DHT22;57473;37.508;15.080;2022-07-23T09:33:26;33.00;50.60
70107;DHT22;57473;37.508;15.080;2022-07-23T09:35:56;33.10;50.70
70107;DHT22;57473;37.508;15.080;2022-07-23T09:38:24;33.10;50.20
70107;DHT22;57473;37.508;15.080;2022-07-23T09:41:11;33.20;49.80
70107;DHT22;57473;37.508;15.080;2022-07-23T09:43:40;32.90;50.50
70107;DHT22;57473;37.508;15.080;2022-07-23T09:46:27;33.10;50.50
70107;DHT22;57473;37.508;15.080;2022-07-23T09:48:55;33.00;50.10
70107;DHT22;57473;37.508;15.080;2022-07-23T09:51:24;33.10;50.10
70107;DHT22;57473;37.508;15.080;2022-07-23T09:53:51;33.10;50.50
70107;DHT22;57473;37.508;15.080;2022-07-23T09:56:22;33.20;50.60
70107;DHT22;57473;37.508;15.080;2022-07-23T09:58:53;33.20;50.20
70107;DHT22;57473;37.508;15.080;2022-07-23T10:01:39;33.20;50.40
70107;DHT22;57473;37.508;15.080;2022-07-23T10:04:07;33.30;50.80
70107;DHT22;57473;37.508;15.080;2022-07-23T10:06:55;33.30;50.40
70107;DHT22;57473;37.508;15.080;2022-07-23T10:09:42;33.40;50.30
70107;DHT22;57473;37.508;15.080;2022-07-23T10:12:36;33.30;49.70
70107;DHT22;57473;37.508;15.080;2022-07-23T10:15:12;33.20;50.20
70107;DHT22;57473;37.508;15.080;2022-07-23T10:17:40;33.30;49.90
70107;DHT22;57473;37.508;15.080;2022-07-23T10:20:07;33.30;48.70
70107;DHT22;57473;37.508;15.080;2022-07-23T10:22:42;33.30;48.90
70107;DHT22;57473;37.508;15.080;2022-07-23T10:25:32;33.30;49.50
70107;DHT22;57473;37.508;15.080;2022-07-23T10:28:31;33.50;49.10
70107;DHT22;57473;37.508;15.080;2022-07-23T10:34:42;33.60;47.90
70107;DHT22;57473;37.508;15.080;2022-07-23T10:37:22;33.60;48.90
70107;DHT22;57473;37.508;15.080;2022-07-23T10:40:22;33.60;49.30
70107;DHT22;57473;37.508;15.080;2022-07-23T10:42:50;33.70;50.30
70107;DHT22;57473;37.508;15.080;2022-07-23T10:48:20;33.50;50.90
70107;DHT22;57473;37.508;15.080;2022-07-23T10:51:10;33.50;50.60
70107;DHT22;57473;37.508;15.080;2022-07-23T10:59:24;33.30;51.10
70107;DHT22;57473;37.508;15.080;2022-07-23T11:01:51;33.20;51.10
70107;DHT22;57473;37.508;15.080;2022-07-23T11:04:19;33.30;50.10
70107;DHT22;57473;37.508;15.080;2022-07-23T11:09:30;33.50;50.60
70107;DHT22;57473;37.508;15.080;2022-07-23T11:14:58;34.90;48.60
70107;DHT22;57473;37.508;15.080;2022-07-23T11:17:26;35.30;46.80
70107;DHT22;57473;37.508;15.080;2022-07-23T11:22:37;35.50;46.70
70107;DHT22;57473;37.508;15.080;2022-07-23T11:25:05;35.80;45.90
70107;DHT22;57473;37.508;15.080;2022-07-23T11:27:42;36.30;46.30
70107;DHT22;57473;37.508;15.080;2022-07-23T11:30:37;36.50;45.10
70107;DHT22;57473;37.508;15.080;2022-07-23T11:35:38;36.80;44.00
70107;DHT22;57473;37.508;15.080;2022-07-23T11:38:18;36.60;43.50
70107;DHT22;57473;37.508;15.080;2022-07-23T11:40:51;37.20;42.60
70107;DHT22;57473;37.508;15.080;2022-07-23T11:43:19;37.70;42.50
70107;DHT22;57473;37.508;15.080;2022-07-23T11:45:52;38.10;41.80
70107;DHT22;57473;37.508;15.080;2022-07-23T11:48:26;38.10;42.00
70107;DHT22;57473;37.508;15.080;2022-07-23T11:50:55;38.30;41.70
70107;DHT22;57473;37.508;15.080;2022-07-23T11:53:28;38.30;41.60
70107;DHT22;57473;37.508;15.080;2022-07-23T11:56:08;38.60;41.00
70107;DHT22;57473;37.508;15.080;2022-07-23T11:58:39;38.80;39.90
70107;DHT22;57473;37.508;15.080;2022-07-23T12:01:20;38.60;39.10
70107;DHT22;57473;37.508;15.080;2022-07-23T12:03:51;38.50;38.20
70107;DHT22;57473;37.508;15.080;2022-07-23T12:06:19;38.40;37.30
70107;DHT22;57473;37.508;15.080;2022-07-23T12:08:46;38.60;36.20
70107;DHT22;57473;37.508;15.080;2022-07-23T12:11:16;38.40;37.20
70107;DHT22;57473;37.508;15.080;2022-07-23T12:13:56;38.10;36.00
70107;DHT22;57473;37.508;15.080;2022-07-23T12:16:23;38.50;36.20
70107;DHT22;57473;37.508;15.080;2022-07-23T12:18:50;38.90;35.70
70107;DHT22;57473;37.508;15.080;2022-07-23T12:21:18;39.30;35.50
70107;DHT22;57473;37.508;15.080;2022-07-23T12:23:48;39.20;35.00
70107;DHT22;57473;37.508;15.080;2022-07-23T12:26:16;38.80;35.70
70107;DHT22;57473;37.508;15.080;2022-07-23T12:28:52;38.80;37.20
70107;DHT22;57473;37.508;15.080;2022-07-23T12:31:26;39.00;37.60
70107;DHT22;57473;37.508;15.080;2022-07-23T12:33:56;39.40;36.50
70107;DHT22;57473;37.508;15.080;2022-07-23T12:36:38;40.10;36.10
70107;DHT22;57473;37.508;15.080;2022-07-23T12:39:11;39.80;36.40
70107;DHT22;57473;37.508;15.080;2022-07-23T12:41:51;39.30;37.10
70107;DHT22;57473;37.508;15.080;2022-07-23T12:44:19;39.10;37.40
70107;DHT22;57473;37.508;15.080;2022-07-23T12:46:51;39.10;37.20
70107;DHT22;57473;37.508;15.080;2022-07-23T12:49:28;39.20;37.60
70107;DHT22;57473;37.508;15.080;2022-07-23T12:51:57;39.20;37.80
70107;DHT22;57473;37.508;15.080;2022-07-23T12:54:28;39.30;36.70
70107;DHT22;57473;37.508;15.080;2022-07-23T12:56:56;38.80;38.20
70107;DHT22;57473;37.508;15.080;2022-07-23T12:59:30;39.10;36.70
70107;DHT22;57473;37.508;15.080;2022-07-23T13:01:58;38.80;37.80
70107;DHT22;57473;37.508;15.080;2022-07-23T13:04:26;38.80;38.00
70107;DHT22;57473;37.508;15.080;2022-07-23T13:06:56;39.00;37.60
70107;DHT22;57473;37.508;15.080;2022-07-23T13:09:30;39.10;37.40
70107;DHT22;57473;37.508;15.080;2022-07-23T13:12:03;39.20;37.50
70107;DHT22;57473;37.508;15.080;2022-07-23T13:14:31;39.20;37.70
70107;DHT22;57473;37.508;15.080;2022-07-23T13:17:00;38.80;38.00
70107;DHT22;57473;37.508;15.080;2022-07-23T13:19:28;38.80;37.80
70107;DHT22;57473;37.508;15.080;2022-07-23T13:21:55;39.10;37.10
70107;DHT22;57473;37.508;15.080;2022-07-23T13:24:24;39.40;36.40
70107;DHT22;57473;37.508;15.080;2022-07-23T13:26:54;39.30;36.60
70107;DHT22;57473;37.508;15.080;2022-07-23T13:29:22;39.60;36.20
70107;DHT22;57473;37.508;15.080;2022-07-23T13:31:49;39.80;35.60
70107;DHT22;57473;37.508;15.080;2022-07-23T13:34:17;39.60;35.00
70107;DHT22;57473;37.508;15.080;2022-07-23T13:36:49;39.30;35.10
70107;DHT22;57473;37.508;15.080;2022-07-23T13:39:16;38.90;35.70
70107;DHT22;57473;37.508;15.080;2022-07-23T13:41:43;38.90;35.30
70107;DHT22;57473;37.508;15.080;2022-07-23T13:44:17;39.00;35.80
70107;DHT22;57473;37.508;15.080;2022-07-23T13:46:48;39.60;34.20
70107;DHT22;57473;37.508;15.080;2022-07-23T13:49:15;39.30;34.40
70107;DHT22;57473;37.508;15.080;2022-07-23T13:51:44;39.20;35.30
70107;DHT22;57473;37.508;15.080;2022-07-23T13:54:11;39.90;34.70
70107;DHT22;57473;37.508;15.080;2022-07-23T13:56:40;40.20;33.20
70107;DHT22;57473;37.508;15.080;2022-07-23T13:59:07;40.30;33.20
70107;DHT22;57473;37.508;15.080;2022-07-23T14:01:34;40.50;33.20
70107;DHT22;57473;37.508;15.080;2022-07-23T14:04:22;40.40;33.40
70107;DHT22;57473;37.508;15.080;2022-07-23T14:06:49;40.90;32.60
70107;DHT22;57473;37.508;15.080;2022-07-23T14:09:20;41.20;31.80
70107;DHT22;57473;37.508;15.080;2022-07-23T14:11:48;41.30;30.50
70107;DHT22;57473;37.508;15.080;2022-07-23T14:14:17;41.10;30.60
70107;DHT22;57473;37.508;15.080;2022-07-23T14:16:45;41.10;31.30
70107;DHT22;57473;37.508;15.080;2022-07-23T14:19:13;41.30;31.00
70107;DHT22;57473;37.508;15.080;2022-07-23T14:21:40;41.20;31.20
70107;DHT22;57473;37.508;15.080;2022-07-23T14:24:11;40.80;31.90
70107;DHT22;57473;37.508;15.080;2022-07-23T14:26:39;40.80;31.60
70107;DHT22;57473;37.508;15.080;2022-07-23T14:29:06;40.70;31.50
70107;DHT22;57473;37.508;15.080;2022-07-23T14:31:34;39.90;32.80
70107;DHT22;57473;37.508;15.080;2022-07-23T14:34:07;39.40;31.70
70107;DHT22;57473;37.508;15.080;2022-07-23T14:36:35;38.00;34.40
70107;DHT22;57473;37.508;15.080;2022-07-23T14:39:05;37.40;35.10
70107;DHT22;57473;37.508;15.080;2022-07-23T14:41:36;36.50;35.90
70107;DHT22;57473;37.508;15.080;2022-07-23T14:44:05;35.80;37.30
70107;DHT22;57473;37.508;15.080;2022-07-23T14:46:38;35.20;38.10
70107;DHT22;57473;37.508;15.080;2022-07-23T14:49:10;34.70;39.00
70107;DHT22;57473;37.508;15.080;2022-07-23T14:51:37;34.50;38.50
70107;DHT22;57473;37.508;15.080;2022-07-23T14:54:05;34.40;37.90
70107;DHT22;57473;37.508;15.080;2022-07-23T14:56:32;34.40;38.70
70107;DHT22;57473;37.508;15.080;2022-07-23T14:59:01;34.40;37.70
70107;DHT22;57473;37.508;15.080;2022-07-23T15:01:31;34.10;37.10
70107;DHT22;57473;37.508;15.080;2022-07-23T15:04:01;34.20;37.20
70107;DHT22;57473;37.508;15.080;2022-07-23T15:06:48;34.00;37.30
70107;DHT22;57473;37.508;15.080;2022-07-23T15:09:16;34.10;37.70
70107;DHT22;57473;37.508;15.080;2022-07-23T15:11:46;34.10;36.70
70107;DHT22;57473;37.508;15.080;2022-07-23T15:14:16;34.10;37.00
70107;DHT22;57473;37.508;15.080;2022-07-23T15:16:55;34.10;36.30
70107;DHT22;57473;37.508;15.080;2022-07-23T15:19:22;34.00;36.20
70107;DHT22;57473;37.508;15.080;2022-07-23T15:21:50;34.00;36.50
70107;DHT22;57473;37.508;15.080;2022-07-23T15:24:17;33.90;37.40
70107;DHT22;57473;37.508;15.080;2022-07-23T15:26:44;33.80;36.50
70107;DHT22;57473;37.508;15.080;2022-07-23T15:29:12;33.80;36.90
70107;DHT22;57473;37.508;15.080;2022-07-23T15:31:39;33.80;36.50
70107;DHT22;57473;37.508;15.080;2022-07-23T15:34:07;33.70;36.30
70107;DHT22;57473;37.508;15.080;2022-07-23T15:36:34;33.80;36.70
70107;DHT22;57473;37.508;15.080;2022-07-23T15:39:02;33.80;35.30
70107;DHT22;57473;37.508;15.080;2022-07-23T15:41:31;33.80;36.10
70107;DHT22;57473;37.508;15.080;2022-07-23T15:43:59;33.80;36.30
70107;DHT22;57473;37.508;15.080;2022-07-23T15:46:47;33.70;35.40
70107;DHT22;57473;37.508;15.080;2022-07-23T15:49:14;33.70;35.30
70107;DHT22;57473;37.508;15.080;2022-07-23T15:51:45;33.70;35.40
70107;DHT22;57473;37.508;15.080;2022-07-23T15:54:16;33.70;35.40
70107;DHT22;57473;37.508;15.080;2022-07-23T15:56:44;33.60;36.10
70107;DHT22;57473;37.508;15.080;2022-07-23T15:59:11;33.60;34.50
70107;DHT22;57473;37.508;15.080;2022-07-23T16:01:38;33.50;33.20